• Join FlightAware (Why Join?)
  • Login
  • US Flag 
Rudolph Flight #1: Arrived! 
11:39AM EST


 

Airport Tracker/Info


-or-


 

Live Flight TrackerFlight Track Log ✈ FLG4211 ✈ 30-Apr-2013 ✈ KAZO - KDTW

Flight Track Log - Related Links

Times and Time Zones

All times are in EDT time to prevent confusion due to time zone crossing. See the FLG4211 flight status page for this flight to view local times or setup timezone preferences in your user account.

Time Position Orientation Groundspeed Altitude Reporting Facility
EDT Latitude Longitude Course Direction KTS MPH feet Rate Location/Type
01:21PM 42.1767 -85.4744 123° Southeast 201 231 3,600  Level Chicago Center
01:22PM 42.1766 -85.3429 103° East  Level FlightAware Approximate
01:22PM 42.1608 -85.3703 102° East 271 312 6,000  Level Chicago Center
01:22PM 42.1525 -85.3061 100° East 276 318 7,600 2,520 Climbing Cleveland Center
01:23PM 42.1667 -85.2702 90° East  Level FlightAware Approximate
01:23PM 42.1344 -85.1897 102° East 298 343 10,100  Level Cleveland Center
01:24PM 42.1556 -85.1982 106° East  Level FlightAware Approximate
01:24PM 42.1122 -85.0622 103° East 320 368 10,900  Level Cleveland Center
01:25PM 42.1463 -85.1545 106° East  Level FlightAware Approximate
01:25PM 42.0903 -84.9292 102° East 348 400 11,000  Level Cleveland Center
01:26PM 42.0664 -84.7875 103° East 367 422 11,000  Level Cleveland Center
01:27PM 42.0122 -84.6667 121° Southeast 374 430 11,000  Level Cleveland Center
01:28PM 41.9497 -84.5508 126° Southeast 379 436 11,000  Level Cleveland Center
01:29PM 41.9058 -84.4308 116° Southeast 374 430 11,000  Level Cleveland Center
01:30PM 41.8733 -84.2811 106° East 377 434 11,000  Level Cleveland Center
01:31PM 41.8586 -84.2161 107° East 375 432 11,000 -120 Level Cleveland Center
01:31PM 41.8442 -84.1456 105° East 368 423 10,900  Descending Cleveland Center
01:32PM 41.8336 -84.0836 103° East 375 432 11,000 60 Climbing Cleveland Center
01:32PM 41.8442 -84.0117 79° East 373 429 11,000  Level Cleveland Center
01:33PM 41.8772 -83.9522 53° Northeast 375 432 11,000  Level Cleveland Center
01:34PM 41.9489 -83.8525 46° Northeast 369 425 11,000  Level Cleveland Center
01:34PM 41.9792 -83.8094 47° Northeast 344 396 11,000  Level Cleveland Center
01:35PM 42.0244 -83.7558 41° Northeast 372 428 11,000 -120 Level Cleveland Center
01:35PM 42.0547 -83.7125 47° Northeast 355 409 10,900  Descending Cleveland Center
01:36PM 42.1000 -83.6589 41° Northeast 373 429 11,000  Climbing Cleveland Center
01:36PM 42.1283 -83.6211 45° Northeast 360 414 10,900  Descending Cleveland Center
01:37PM 42.1728 -83.5922 26° Northeast 268 308 11,000 60 Climbing Cleveland Center
01:37PM 42.1964 -83.5653 40° Northeast 322 371 11,000 -120 Level Cleveland Center
01:38PM 42.2408 -83.5422 21° North 238 274 10,900 -420 Descending Cleveland Center
01:38PM 42.2558 -83.5261 38° Northeast 261 300 10,600 -1,440 Descending Cleveland Center
01:39PM 42.2939 -83.5025 25° Northeast 242 278 9,600 -1,440 Descending Cleveland Center
01:39PM 42.3131 -83.4867 31° Northeast 237 273 9,200 -1,800 Descending Cleveland Center
01:41PM 42.4106 -83.4236 26° Northeast 227 261 6,000 -1,800 Descending Cleveland Center
01:42PM 42.4206 -83.3536 79° East 190 219 4,400 -1,140 Descending Cleveland Center
01:43PM 42.3839 -83.3183 145° Southeast 172 198 3,800 -720 Descending Cleveland Center
01:44PM 42.3361 -83.3164 178° South 159 183 3,000 -840 Descending Cleveland Center
01:45PM 42.2942 -83.3172 181° South 153 176 2,200 -840 Descending Cleveland Center